Kaélé Airport

FKKH · Far North, Camerun

Storia di METAR FKKH · Kaélé Airport

Di seguito sono riportati i METAR degli ultimi giorni. Seleziona un anno per sfogliare i METAR più vecchi, dall'anno 2007 in poi.

14 luglio 2024

Tempo Codice Tempo meteorologico Temp. Vista Base nuvolosa Vento METAR/SPECI
21:00
V
28 °C 10 km+ - 120° 120° 2 kt METAR FKKR 142000Z 12002KT 9999 FEW016 28/26 Q1012 NOSIG
20:00
V
28 °C 10 km+ - 150° 150° 3 kt METAR FKKR 141900Z 15003KT 9999 FEW016 28/26 Q1012 NOSIG
19:00
V
29 °C 10 km+ - 200° 200° 2 kt METAR FKKR 141800Z 20002KT 9999 FEW016 29/25 Q1012 NOSIG
18:00
V
29 °C 10 km+ - 200° 200° 3 kt METAR FKKR 141700Z 20003KT 270V230 9999 FEW016 FEW018CB 29/25 Q1012 NOSIG
17:00
V
31 °C 10 km+ - 260° 260° 3 kt METAR FKKR 141600Z 26003KT 220V290 9999 FEW016 FEW018CB 31/23 Q1011 NOSIG
16:00
V
31 °C 10 km+ - 230° 230° 4 kt METAR FKKR 141500Z 23004KT 210V290 9999 SCT016 FEW018CB 31/24 Q1011 NOSIG
15:00
V
32 °C 10 km+ - 270° 270° 6 kt METAR FKKR 141400Z 27006KT 9999 SCT016 FEW018CB 32/23 Q1011 NOSIG
14:00
V
32 °C 10 km+ - 270° 270° 7 kt METAR FKKR 141300Z 27007KT 240V300 9999 SCT016 FEW018CB 32/23 Q1013 NOSIG
13:00
M
32 °C 10 km+ 1.600 ft 300° 300° 10 kt METAR FKKR 141200Z 30010KT 9999 BKN016 FEW018CB 32/23 Q1014 NOSIG
12:00
M
31 °C 10 km+ 1.400 ft 300° 300° 10 kt METAR FKKR 141100Z 30010KT 9999 BKN014 31/24 Q1014 BECMG BKN016
11:00
M
30 °C 10 km+ 1.400 ft 300° 300° 9 kt METAR FKKR 141000Z 30009KT 260V330 9999 BKN014 30/24 Q1015 BECMG BKN016

13 luglio 2024

Tempo Codice Tempo meteorologico Temp. Vista Base nuvolosa Vento METAR/SPECI
21:00
V
29 °C 10 km+ - 310° 310° 4 kt METAR FKKR 132000Z 31004KT 9999 TS FEW018 FEW020CB 29/24 Q1013 NOSIG
20:00
V
30 °C 10 km+ - 280° 280° 6 kt METAR FKKR 131900Z 28006KT 9999 TS FEW018 FEW020CB 30/24 Q1012 NOSIG
19:00
V
31 °C 10 km+ - 260° 260° 6 kt METAR FKKR 131800Z 26006KT 9999 FEW018 FEW020CB 31/23 Q1011 NOSIG
18:00
V
33 °C 10 km+ - 260° 260° 10 kt METAR FKKR 131700Z 26010KT 9999 SCT018 FEW020CB 33/23 Q1010 NOSIG
17:00
V
35 °C 10 km+ - 280° 280° 7 kt METAR FKKR 131600Z 28007KT 240V310 9999 SCT018 FEW020CB 35/21 Q1009 NOSIG
16:00
M
34 °C 10 km+ 1.800 ft 300° 300° 7 kt METAR FKKR 131500Z 30007KT 240V330 9999 BKN018 FEW020TCU 34/23 Q1010 NOSIG
15:00
M
35 °C 10 km+ 1.800 ft 260° 260° 5 kt METAR FKKR 131400Z 26005KT 200V350 9999 BKN018 FEW020TCU 35/23 Q1010 NOSIG
14:00
M
34 °C 10 km+ 1.800 ft 310° 310° 8 kt METAR FKKR 131300Z 31008KT 9999 BKN018 34/22 Q1011 NOSIG
13:00
M
33 °C 10 km+ 1.800 ft 290° 290° 7 kt METAR FKKR 131200Z 29007KT 250V320 9999 BKN018 33/23 Q1012 NOSIG
12:00
M
32 °C 10 km+ 1.600 ft 270° 270° 10 kt METAR FKKR 131100Z 27010KT 220V310 9999 BKN016 32/23 Q1013 NOSIG
11:00
M
31 °C 10 km+ 1.300 ft 280° 280° 8 kt METAR FKKR 131000Z 28008KT 240V310 9999 BKN013 31/23 Q1014 TEMPO BKN016
10:00
V
30 °C 10 km+ - 240° 240° 4 kt METAR FKKR 130900Z 24004KT 180V290 9999 SCT013 30/23 Q1015 TEMPO BKN016
09:00
V
29 °C 10 km+ - 250° 250° 4 kt METAR FKKR 130800Z 25004KT 210V290 9999 FEW013 29/24 Q1015 TEMPO BKN014
08:00
V
28 °C 10 km+ - Var Var 1 kt METAR FKKR 130700Z VRB01KT CAVOK 28/24 Q1014 NOSIG
Segnala modifiche